ENTC/TOS METAR and TAF weather

Enter ICAO airport designator
Station Type Date Time Source
ENTC METAR 2020/04/07 03:20 UTC NOAA

ENTC 070320Z 20015KT 9999 SCT040 03/M01 Q1003 RMK WIND 2600FT 18031KT


Station Type Date Time Source
ENTC Decoded METAR 2020/04/07 03:20 UTC NOAA

Tromso / Langnes, Norway (ENTC) 69-41N 018-55E 10M
Apr 06, 2020 - 11:20 PM EDT / 2020.04.07 0320 UTC
Wind: from the SSW (200 degrees) at 17 MPH (15 KT):0
Visibility: greater than 7 mile(s):0
Sky conditions: partly cloudy
Temperature: 37 F (3 C)
Dew Point: 30 F (-1 C)
Relative Humidity: 74%
Pressure (altimeter): 29.62 in. Hg (1003 hPa)
ob: ENTC 070320Z 20015KT 9999 SCT040 03/M01 Q1003 RMK WIND 2600FT 18031KT
cycle: 3

Station Type Date Time Source
ENTC TAF 2020/04/06 20:15 UTC NOAA

TAF
AMD
AMD ENTC 0620/0718 VRB05KT 9999 FEW040 BKN060
BECMG 0620/0622 20012KT

Example: see airport list